createdAt,value
2023-03-06T00:00:39.743Z,1.36
2023-03-06T00:03:06.647Z,1.43
2023-03-06T00:05:33.265Z,1.44
2023-03-06T00:07:59.725Z,1.53
2023-03-06T00:10:29.003Z,1.56
2023-03-06T00:12:59.593Z,1.64
2023-03-06T00:15:27.292Z,1.73
2023-03-06T00:17:54.409Z,1.76
2023-03-06T00:20:22.245Z,1.84
2023-03-06T00:22:49.405Z,1.85
2023-03-06T00:25:18.863Z,1.91
2023-03-06T00:27:45.933Z,2.01
2023-03-06T00:30:18.612Z,2.13
2023-03-06T00:32:45.313Z,2.19
2023-03-06T00:35:12.330Z,2.19
2023-03-06T00:37:39.720Z,2.28
2023-03-06T00:40:07.312Z,2.32
2023-03-06T00:42:33.721Z,2.39
2023-03-06T00:45:00.146Z,2.44
2023-03-06T00:47:26.572Z,2.49
2023-03-06T00:49:53.001Z,2.54
2023-03-06T00:52:19.593Z,2.64
2023-03-06T00:54:46.052Z,2.77
2023-03-06T00:57:12.487Z,2.91
2023-03-06T00:59:39.005Z,3.00
2023-03-06T01:02:05.942Z,3.00
2023-03-06T01:04:32.546Z,2.95
2023-03-06T01:06:59.025Z,2.93
2023-03-06T01:09:25.849Z,2.82
2023-03-06T01:11:52.218Z,2.61
2023-03-06T01:14:21.415Z,2.51
2023-03-06T01:16:48.459Z,2.42
2023-03-06T01:19:14.968Z,2.37
2023-03-06T01:21:41.359Z,2.36
2023-03-06T01:24:07.918Z,2.36
2023-03-06T01:26:34.761Z,2.32
2023-03-06T01:29:01.608Z,2.28
2023-03-06T01:31:28.293Z,2.30
2023-03-06T01:33:54.762Z,2.30
2023-03-06T01:36:21.167Z,2.31
2023-03-06T01:38:47.528Z,2.34
2023-03-06T01:41:17.303Z,2.37
2023-03-06T01:43:45.780Z,2.42
2023-03-06T01:46:17.879Z,2.44
2023-03-06T01:48:46.502Z,2.45
2023-03-06T01:51:13.065Z,2.49
2023-03-06T01:53:40.810Z,2.52
2023-03-06T01:56:07.783Z,2.60
2023-03-06T01:58:34.518Z,2.62
2023-03-06T02:01:00.970Z,2.65
2023-03-06T02:03:28.903Z,2.63
2023-03-06T02:05:56.469Z,2.53
2023-03-06T02:08:23.976Z,2.31
2023-03-06T02:11:14.188Z,2.18
2023-03-06T02:13:42.612Z,2.17
2023-03-06T02:16:10.200Z,2.17
2023-03-06T02:18:38.110Z,2.17
2023-03-06T02:21:08.427Z,2.22
2023-03-06T02:23:53.767Z,2.30
2023-03-06T02:26:21.109Z,2.35
2023-03-06T02:28:47.618Z,2.38
2023-03-06T02:31:22.911Z,2.31
2023-03-06T02:34:15.516Z,2.24
2023-03-06T02:36:51.049Z,2.19
2023-03-06T02:39:21.814Z,2.18
2023-03-06T02:41:48.314Z,2.19
2023-03-06T02:44:14.737Z,2.21
2023-03-06T02:46:41.154Z,2.19
2023-03-06T02:49:07.627Z,2.16
2023-03-06T02:51:34.589Z,2.09
2023-03-06T02:54:00.974Z,2.03
2023-03-06T02:56:27.451Z,1.98
2023-03-06T02:58:53.919Z,1.93
2023-03-06T03:01:20.404Z,1.88
2023-03-06T03:03:46.937Z,1.85
2023-03-06T03:06:13.377Z,1.82
2023-03-06T03:08:39.812Z,1.79
2023-03-06T03:11:06.247Z,1.78
2023-03-06T03:13:32.703Z,1.75
2023-03-06T03:16:02.505Z,1.72
2023-03-06T03:18:29.587Z,1.71
2023-03-06T03:20:56.247Z,1.67
2023-03-06T03:23:23.021Z,1.62
2023-03-06T03:25:50.026Z,1.53
2023-03-06T03:28:16.670Z,1.45
2023-03-06T03:30:43.617Z,1.36
2023-03-06T03:33:10.517Z,1.28
2023-03-06T03:35:37.486Z,1.22
2023-03-06T03:38:04.048Z,1.16
2023-03-06T03:40:30.516Z,1.12
2023-03-06T03:42:56.911Z,1.04
2023-03-06T03:45:23.337Z,0.98
2023-03-06T03:47:49.767Z,0.94
2023-03-06T03:50:16.310Z,0.89
2023-03-06T03:52:42.761Z,0.88
2023-03-06T03:55:09.406Z,0.86
2023-03-06T03:57:35.803Z,0.86
2023-03-06T04:00:02.185Z,0.88
2023-03-06T04:02:28.613Z,0.83
2023-03-06T04:04:55.253Z,0.78
2023-03-06T04:07:21.662Z,0.73
2023-03-06T04:09:48.053Z,0.70
2023-03-06T04:12:14.525Z,0.72
2023-03-06T04:14:40.959Z,0.72
2023-03-06T04:17:07.405Z,0.69
2023-03-06T04:19:33.761Z,0.67
2023-03-06T04:22:00.192Z,0.65
2023-03-06T04:24:26.570Z,0.63
2023-03-06T04:26:53.021Z,0.61
2023-03-06T04:29:19.412Z,0.63
2023-03-06T04:31:45.852Z,0.62
2023-03-06T04:34:12.311Z,0.60
2023-03-06T04:36:38.813Z,0.58
2023-03-06T04:39:05.231Z,0.56
2023-03-06T04:41:31.680Z,0.57
2023-03-06T04:43:58.313Z,0.57
2023-03-06T04:46:25.151Z,0.55
2023-03-06T04:48:51.587Z,0.49
2023-03-06T04:51:18.133Z,0.46
2023-03-06T04:53:44.581Z,0.45
2023-03-06T04:56:11.051Z,0.42
2023-03-06T04:58:37.672Z,0.41
2023-03-06T05:01:04.546Z,0.37
2023-03-06T05:03:31.029Z,0.36
2023-03-06T05:05:58.464Z,0.34
2023-03-06T05:08:24.921Z,0.31
2023-03-06T05:11:01.885Z,0.28
2023-03-06T05:13:29.057Z,0.28
2023-03-06T05:15:55.618Z,0.29
2023-03-06T05:18:22.004Z,0.26
2023-03-06T05:20:48.428Z,0.25
2023-03-06T05:23:14.882Z,0.25
2023-03-06T05:25:42.076Z,0.26
2023-03-06T05:28:08.842Z,0.25
2023-03-06T05:30:36.600Z,0.23
2023-03-06T05:33:03.141Z,0.17
2023-03-06T05:35:29.654Z,0.12
2023-03-06T05:37:56.615Z,0.07
2023-03-06T05:40:23.204Z,0.05
2023-03-06T05:42:49.695Z,-0.05
2023-03-06T05:45:16.249Z,-0.05
2023-03-06T05:47:42.719Z,-0.06
2023-03-06T05:50:10.738Z,-0.15
2023-03-06T05:52:39.514Z,-0.23
2023-03-06T05:55:07.416Z,-0.23
2023-03-06T05:57:34.067Z,-0.24
2023-03-06T06:00:00.594Z,-0.26
2023-03-06T06:02:27.080Z,-0.26
2023-03-06T06:04:53.528Z,-0.28
2023-03-06T06:07:19.923Z,-0.30
2023-03-06T06:09:46.440Z,-0.37
2023-03-06T06:12:14.029Z,-0.43
2023-03-06T06:14:40.424Z,-0.46
2023-03-06T06:17:07.034Z,-0.53
2023-03-06T06:19:33.416Z,-0.58
2023-03-06T06:22:02.568Z,-0.57
2023-03-06T06:24:29.614Z,-0.52
2023-03-06T06:26:57.767Z,-0.55
2023-03-06T06:29:25.263Z,-0.55
2023-03-06T06:31:52.089Z,-0.57
2023-03-06T06:34:19.044Z,-0.58
2023-03-06T06:36:45.858Z,-0.62
2023-03-06T06:39:15.909Z,-0.62
2023-03-06T06:41:59.335Z,-0.57
2023-03-06T06:44:28.826Z,-0.56
2023-03-06T06:49:41.626Z,-0.34
2023-03-06T06:52:08.123Z,-0.31
2023-03-06T06:54:34.774Z,-0.26
2023-03-06T06:57:01.242Z,-0.22
2023-03-06T06:59:27.768Z,-0.15
2023-03-06T07:01:54.216Z,-0.09
2023-03-06T07:04:20.749Z,-0.02
2023-03-06T07:06:47.186Z,0.04
2023-03-06T07:09:14.209Z,0.05
2023-03-06T07:11:41.224Z,0.09
2023-03-06T07:14:08.089Z,0.16
2023-03-06T07:16:34.936Z,0.24
2023-03-06T07:19:01.377Z,0.30
2023-03-06T07:21:27.806Z,0.38
2023-03-06T07:23:57.182Z,0.44
2023-03-06T07:26:27.880Z,0.55
2023-03-06T07:28:54.928Z,0.82
2023-03-06T07:31:23.802Z,1.07
2023-03-06T07:33:51.926Z,1.39
2023-03-06T07:36:18.767Z,1.68
2023-03-06T07:38:45.415Z,1.80
2023-03-06T07:41:13.771Z,1.92
2023-03-06T07:43:41.212Z,1.99
2023-03-06T07:46:08.720Z,2.01
2023-03-06T07:48:36.241Z,2.15
2023-03-06T07:51:08.890Z,2.43
2023-03-06T07:53:35.707Z,2.56
2023-03-06T07:56:08.493Z,2.64
2023-03-06T07:58:36.656Z,2.81
2023-03-06T08:01:05.386Z,2.84
2023-03-06T08:03:32.385Z,3.10
2023-03-06T08:06:10.091Z,3.64
2023-03-06T08:08:39.266Z,4.40
2023-03-06T08:11:07.423Z,4.60
2023-03-06T08:13:34.340Z,4.89
2023-03-06T08:16:00.846Z,5.28
2023-03-06T08:18:28.421Z,5.23
2023-03-06T08:21:05.510Z,5.47
2023-03-06T08:23:32.865Z,6.03
2023-03-06T08:26:00.690Z,6.35
2023-03-06T08:28:28.496Z,6.52
2023-03-06T08:30:56.228Z,6.50
2023-03-06T08:33:23.261Z,6.83
2023-03-06T08:35:49.724Z,7.10
2023-03-06T08:38:16.280Z,7.29
2023-03-06T08:40:42.819Z,7.79
2023-03-06T08:43:12.385Z,7.58
2023-03-06T08:45:40.289Z,7.34
2023-03-06T08:48:06.717Z,7.53
2023-03-06T08:50:33.194Z,7.72
2023-03-06T08:52:59.808Z,7.71
2023-03-06T08:55:28.096Z,7.62
2023-03-06T08:57:54.630Z,7.47
2023-03-06T09:00:21.253Z,7.43
2023-03-06T09:02:47.801Z,7.96
2023-03-06T09:05:14.237Z,7.61
2023-03-06T09:07:40.650Z,7.66
2023-03-06T09:10:08.364Z,7.88
2023-03-06T09:12:47.516Z,7.74
2023-03-06T09:15:16.229Z,7.67
2023-03-06T09:17:42.686Z,7.27
2023-03-06T09:20:10.871Z,7.89
2023-03-06T09:22:37.747Z,8.29
2023-03-06T09:25:05.877Z,7.73
2023-03-06T09:27:32.362Z,7.76
2023-03-06T09:29:58.780Z,7.06
2023-03-06T09:32:25.889Z,7.03
2023-03-06T09:34:52.399Z,7.47
2023-03-06T09:37:19.267Z,6.97
2023-03-06T09:39:45.657Z,7.41
2023-03-06T09:42:18.842Z,6.92
2023-03-06T09:44:54.584Z,7.26
2023-03-06T09:47:45.012Z,7.78
2023-03-06T09:50:20.615Z,7.68
2023-03-06T09:52:59.204Z,7.75
2023-03-06T09:55:30.354Z,7.52
2023-03-06T09:58:09.022Z,7.49
2023-03-06T10:01:17.209Z,7.68
2023-03-06T10:04:13.516Z,7.14
2023-03-06T10:06:48.264Z,6.88
2023-03-06T10:09:32.013Z,6.51
2023-03-06T10:12:06.654Z,6.60
2023-03-06T10:14:41.895Z,6.70
2023-03-06T10:17:20.093Z,6.68
2023-03-06T10:19:49.955Z,6.78
2023-03-06T10:22:33.174Z,6.95
2023-03-06T10:25:26.039Z,6.88
2023-03-06T10:28:03.662Z,6.69
2023-03-06T10:30:52.636Z,6.79
2023-03-06T10:33:42.319Z,7.00
2023-03-06T10:36:14.577Z,6.91
2023-03-06T10:38:42.650Z,6.64
2023-03-06T10:41:11.986Z,6.47
2023-03-06T10:44:05.675Z,6.47
2023-03-06T10:46:37.901Z,6.89
2023-03-06T10:49:22.175Z,7.01
2023-03-06T10:51:59.626Z,7.23
2023-03-06T10:54:26.925Z,7.64
2023-03-06T10:56:53.544Z,7.35
2023-03-06T10:59:26.508Z,7.52
2023-03-06T11:01:58.741Z,8.02
2023-03-06T11:04:29.756Z,8.14
2023-03-06T11:07:18.209Z,8.29
2023-03-06T11:09:56.505Z,8.03
2023-03-06T11:12:29.070Z,7.68
2023-03-06T11:15:20.950Z,7.71
2023-03-06T11:18:04.540Z,7.57
2023-03-06T11:20:52.141Z,7.56
2023-03-06T11:23:28.363Z,7.58
2023-03-06T11:26:07.104Z,7.26
2023-03-06T11:28:40.769Z,7.34
2023-03-06T11:31:32.983Z,7.46
2023-03-06T11:34:16.508Z,7.33
2023-03-06T11:37:06.224Z,7.49
2023-03-06T11:39:42.772Z,7.72
2023-03-06T11:42:34.558Z,7.99
2023-03-06T11:45:04.240Z,7.89
2023-03-06T11:47:40.986Z,7.91
2023-03-06T11:50:18.882Z,7.99
2023-03-06T11:52:57.134Z,7.83
2023-03-06T11:55:42.670Z,7.47
2023-03-06T11:58:22.410Z,7.41
2023-03-06T12:01:08.696Z,7.62
2023-03-06T12:03:50.290Z,7.02
2023-03-06T12:06:16.675Z,6.70
2023-03-06T12:09:09.008Z,6.52
2023-03-06T12:11:45.823Z,6.52
2023-03-06T12:14:37.240Z,6.54
2023-03-06T12:17:23.423Z,6.75
2023-03-06T12:19:50.594Z,6.90
2023-03-06T12:22:31.221Z,6.62
2023-03-06T12:25:08.455Z,6.68
2023-03-06T12:28:15.854Z,6.84
2023-03-06T12:31:17.561Z,6.95
2023-03-06T12:34:14.290Z,6.95
2023-03-06T12:37:07.653Z,7.22
2023-03-06T12:40:12.586Z,7.18
2023-03-06T12:43:23.573Z,7.13
2023-03-06T12:45:57.834Z,6.99
2023-03-06T12:48:29.220Z,6.97
2023-03-06T12:50:56.290Z,7.09
2023-03-06T12:53:30.644Z,7.08
2023-03-06T12:56:00.171Z,6.79
2023-03-06T12:58:32.596Z,6.74
2023-03-06T13:01:32.387Z,6.65
2023-03-06T13:04:16.968Z,6.44
2023-03-06T13:07:04.996Z,6.43
2023-03-06T13:10:06.317Z,6.40
2023-03-06T13:12:49.837Z,6.15
2023-03-06T13:15:37.899Z,6.18
2023-03-06T13:18:42.732Z,6.25
2023-03-06T13:21:44.633Z,6.24
2023-03-06T13:24:25.603Z,6.31
2023-03-06T13:27:04.724Z,6.26
2023-03-06T13:29:36.788Z,6.35
2023-03-06T13:32:03.411Z,6.33
2023-03-06T13:34:35.771Z,6.20
2023-03-06T13:37:17.586Z,5.96
2023-03-06T13:39:56.045Z,5.94
2023-03-06T13:42:29.949Z,5.80
2023-03-06T13:45:05.619Z,5.70
2023-03-06T13:50:44.249Z,5.85
2023-03-06T13:53:44.527Z,5.77
2023-03-06T13:56:28.957Z,5.67
2023-03-06T13:59:37.335Z,5.60
2023-03-06T14:02:55.971Z,5.53
2023-03-06T14:05:24.048Z,5.40
2023-03-06T14:08:18.465Z,5.30
2023-03-06T14:10:47.279Z,5.08
2023-03-06T14:13:22.279Z,4.82
2023-03-06T14:15:51.268Z,4.55
2023-03-06T14:18:38.480Z,4.37
2023-03-06T14:21:11.817Z,4.32
2023-03-06T14:23:42.585Z,4.23
2023-03-06T14:26:18.574Z,3.98
2023-03-06T14:28:56.628Z,3.86
2023-03-06T14:31:25.627Z,3.81
2023-03-06T14:33:55.252Z,3.63
2023-03-06T14:36:26.003Z,3.59
2023-03-06T14:38:59.009Z,3.55
2023-03-06T14:41:32.061Z,3.59
2023-03-06T14:44:28.526Z,3.74
2023-03-06T14:46:56.893Z,3.85
2023-03-06T14:49:25.598Z,3.81
2023-03-06T14:52:00.536Z,3.66
2023-03-06T14:54:36.928Z,3.55
2023-03-06T14:57:08.518Z,3.49
2023-03-06T14:59:41.619Z,3.47
2023-03-06T15:02:12.545Z,3.38
2023-03-06T15:04:49.115Z,3.29
2023-03-06T15:07:26.076Z,3.20
2023-03-06T15:09:54.313Z,3.20
2023-03-06T15:12:20.809Z,3.16
2023-03-06T15:15:10.410Z,3.05
2023-03-06T15:17:42.776Z,2.97
2023-03-06T15:20:37.447Z,2.95
2023-03-06T15:23:15.365Z,2.88
2023-03-06T15:25:50.836Z,2.76
2023-03-06T15:28:26.872Z,2.77
2023-03-06T15:31:18.128Z,2.76
2023-03-06T15:33:59.383Z,2.81
2023-03-06T15:36:29.637Z,2.82
2023-03-06T15:38:56.512Z,2.79
2023-03-06T15:41:38.088Z,2.71
2023-03-06T15:44:15.366Z,2.68
2023-03-06T15:46:42.067Z,2.70
2023-03-06T15:49:17.491Z,2.72
2023-03-06T15:51:44.053Z,2.76
2023-03-06T15:54:12.535Z,2.79
2023-03-06T15:56:42.200Z,2.85
2023-03-06T15:59:15.415Z,2.85
2023-03-06T16:01:43.288Z,2.83
2023-03-06T16:04:09.807Z,2.83
2023-03-06T16:06:37.220Z,2.82
2023-03-06T16:09:03.620Z,2.84
2023-03-06T16:11:41.977Z,2.81
2023-03-06T16:14:20.026Z,2.76
2023-03-06T16:16:47.664Z,2.72
2023-03-06T16:19:26.011Z,2.69
2023-03-06T16:21:53.199Z,2.59
2023-03-06T16:24:19.572Z,2.54
2023-03-06T16:26:49.275Z,2.51
2023-03-06T16:29:24.073Z,2.54
2023-03-06T16:31:51.456Z,2.51
2023-03-06T16:34:19.672Z,2.48
2023-03-06T16:36:48.161Z,2.47
2023-03-06T16:39:20.684Z,2.52
2023-03-06T16:41:49.283Z,2.53
2023-03-06T16:44:15.907Z,2.54
2023-03-06T16:46:47.084Z,2.53
2023-03-06T16:49:22.661Z,2.56
2023-03-06T16:51:49.751Z,2.58
2023-03-06T16:54:16.160Z,2.58
2023-03-06T16:56:43.338Z,2.61
2023-03-06T16:59:10.624Z,2.66
2023-03-06T17:01:38.678Z,2.70
2023-03-06T17:04:05.313Z,2.73
2023-03-06T17:06:31.787Z,2.77
2023-03-06T17:08:59.645Z,2.85
2023-03-06T17:11:26.615Z,2.88
2023-03-06T17:13:54.679Z,2.91
2023-03-06T17:16:21.444Z,2.92
2023-03-06T17:18:48.239Z,2.95
2023-03-06T17:21:17.578Z,2.95
2023-03-06T17:23:44.631Z,2.96
2023-03-06T17:26:18.100Z,3.00
2023-03-06T17:28:45.784Z,3.03
2023-03-06T17:31:21.176Z,3.05
2023-03-06T17:33:48.425Z,3.06
2023-03-06T17:36:15.962Z,3.09
2023-03-06T17:38:43.430Z,3.12
2023-03-06T17:41:11.446Z,3.13
2023-03-06T17:43:38.668Z,3.17
2023-03-06T17:46:10.540Z,3.20
2023-03-06T17:48:37.510Z,3.24
2023-03-06T17:51:04.093Z,3.30
2023-03-06T17:53:31.968Z,3.32
2023-03-06T17:55:58.403Z,3.34
2023-03-06T17:58:26.173Z,3.35
2023-03-06T18:00:52.820Z,3.39
2023-03-06T18:03:19.484Z,3.41
2023-03-06T18:05:46.044Z,3.44
2023-03-06T18:08:12.523Z,3.46
2023-03-06T18:10:43.420Z,3.50
2023-03-06T18:13:10.437Z,3.54
2023-03-06T18:15:40.940Z,3.55
2023-03-06T18:18:08.422Z,3.63
2023-03-06T18:20:40.342Z,3.68
2023-03-06T18:23:06.803Z,3.71
2023-03-06T18:25:33.325Z,3.75
2023-03-06T18:27:59.802Z,3.77
2023-03-06T18:30:26.631Z,3.81
2023-03-06T18:32:53.972Z,3.84
2023-03-06T18:35:21.033Z,3.84
2023-03-06T18:37:47.536Z,3.84
2023-03-06T18:40:14.311Z,3.87
2023-03-06T18:42:40.778Z,3.87
2023-03-06T18:45:07.832Z,3.88
2023-03-06T18:47:34.192Z,3.88
2023-03-06T18:50:02.650Z,3.89
2023-03-06T18:52:29.060Z,3.86
2023-03-06T18:54:55.443Z,3.77
2023-03-06T18:57:21.943Z,3.73
2023-03-06T18:59:48.382Z,3.69
2023-03-06T19:02:14.816Z,3.67
2023-03-06T19:04:41.265Z,3.67
2023-03-06T19:07:07.856Z,3.65
2023-03-06T19:09:34.247Z,3.61
2023-03-06T19:12:03.392Z,3.60
2023-03-06T19:14:29.923Z,3.58
2023-03-06T19:16:56.712Z,3.60
2023-03-06T19:19:26.396Z,3.61
2023-03-06T19:21:53.507Z,3.63
2023-03-06T19:24:19.938Z,3.69
2023-03-06T19:26:46.387Z,3.66
2023-03-06T19:29:12.942Z,3.66
2023-03-06T19:31:39.394Z,3.64
2023-03-06T19:34:05.814Z,3.63
2023-03-06T19:36:34.109Z,3.61
2023-03-06T19:39:04.076Z,3.58
2023-03-06T19:41:30.553Z,3.56
2023-03-06T19:43:59.215Z,3.53
2023-03-06T19:46:26.514Z,3.52
2023-03-06T19:49:01.496Z,3.56
2023-03-06T19:51:28.594Z,3.57
2023-03-06T19:53:56.603Z,3.60
2023-03-06T19:56:28.983Z,3.64
2023-03-06T19:58:56.312Z,3.72
2023-03-06T20:01:25.125Z,3.70
2023-03-06T20:03:59.353Z,3.72
2023-03-06T20:06:28.049Z,3.68
2023-03-06T20:08:54.868Z,3.62
2023-03-06T20:11:23.995Z,3.58
2023-03-06T20:13:50.724Z,3.50
2023-03-06T20:16:17.903Z,3.41
2023-03-06T20:18:45.452Z,3.31
2023-03-06T20:21:12.168Z,3.22
2023-03-06T20:23:38.603Z,3.07
2023-03-06T20:26:11.732Z,3.05
2023-03-06T20:28:39.416Z,3.08
2023-03-06T20:31:27.650Z,3.08
2023-03-06T20:33:56.287Z,3.11
2023-03-06T20:36:27.419Z,3.10
2023-03-06T20:38:53.839Z,3.06
2023-03-06T20:41:25.353Z,3.09
2023-03-06T20:43:52.345Z,3.11
2023-03-06T20:46:22.781Z,3.13
2023-03-06T20:48:51.755Z,3.15
2023-03-06T20:51:28.524Z,3.17
2023-03-06T20:53:55.931Z,3.19
2023-03-06T20:56:25.444Z,3.23
2023-03-06T20:58:52.124Z,3.27
2023-03-06T21:01:23.761Z,3.20
2023-03-06T21:03:51.067Z,3.16
2023-03-06T21:06:18.164Z,3.14
2023-03-06T21:08:45.345Z,3.14
2023-03-06T21:11:11.987Z,3.15
2023-03-06T21:13:38.465Z,3.19
2023-03-06T21:16:10.716Z,3.18
2023-03-06T21:18:37.200Z,3.22
2023-03-06T21:21:08.847Z,3.22
2023-03-06T21:23:35.280Z,3.23
2023-03-06T21:26:01.733Z,3.23
2023-03-06T21:28:28.215Z,3.26
2023-03-06T21:30:54.577Z,3.29
2023-03-06T21:33:21.035Z,3.33
2023-03-06T21:35:47.560Z,3.41
2023-03-06T21:38:14.030Z,3.44
2023-03-06T21:40:40.598Z,3.44
2023-03-06T21:43:07.016Z,2.95
2023-03-06T21:45:33.471Z,2.80
2023-03-06T21:48:00.314Z,2.72
2023-03-06T21:50:28.090Z,2.70
2023-03-06T21:52:56.316Z,2.62
2023-03-06T21:55:23.320Z,2.55
2023-03-06T21:57:53.991Z,2.54
2023-03-06T22:00:23.252Z,2.53
2023-03-06T22:02:50.151Z,2.55
2023-03-06T22:05:16.930Z,2.58
2023-03-06T22:07:43.380Z,2.62
2023-03-06T22:10:12.134Z,2.68
2023-03-06T22:12:39.238Z,2.73
2023-03-06T22:15:06.792Z,2.75
2023-03-06T22:17:33.280Z,2.79
2023-03-06T22:19:59.622Z,2.80
2023-03-06T22:22:26.054Z,2.84
2023-03-06T22:24:52.470Z,2.86
2023-03-06T22:27:18.882Z,2.94
2023-03-06T22:29:45.873Z,2.99
2023-03-06T22:32:12.647Z,3.04
2023-03-06T22:34:39.285Z,3.15
2023-03-06T22:37:05.693Z,3.16
2023-03-06T22:39:32.093Z,3.07
2023-03-06T22:41:58.751Z,2.98
2023-03-06T22:44:25.138Z,2.92
2023-03-06T22:46:51.791Z,2.89
2023-03-06T22:49:18.815Z,2.86
2023-03-06T22:51:45.339Z,2.84
2023-03-06T22:54:11.886Z,2.84
2023-03-06T22:56:38.428Z,2.83
2023-03-06T22:59:05.270Z,2.80
2023-03-06T23:01:34.083Z,2.80
2023-03-06T23:04:02.863Z,2.78
2023-03-06T23:06:31.855Z,2.81
2023-03-06T23:09:05.966Z,2.83
2023-03-06T23:11:33.017Z,2.84
2023-03-06T23:13:59.702Z,2.88
2023-03-06T23:16:26.290Z,2.87
2023-03-06T23:18:53.320Z,2.80
2023-03-06T23:21:21.689Z,2.77
2023-03-06T23:23:50.198Z,2.70
2023-03-06T23:26:17.363Z,2.67
2023-03-06T23:28:43.935Z,2.67
2023-03-06T23:31:15.772Z,2.73
2023-03-06T23:33:42.630Z,2.76
2023-03-06T23:36:12.600Z,2.85
2023-03-06T23:38:39.389Z,2.88
2023-03-06T23:41:12.622Z,2.93
2023-03-06T23:43:39.308Z,2.95
2023-03-06T23:46:07.166Z,2.97
2023-03-06T23:48:35.702Z,2.94
2023-03-06T23:51:23.031Z,2.91
2023-03-06T23:53:55.617Z,2.92
2023-03-06T23:56:23.176Z,2.95
2023-03-06T23:58:49.652Z,3.04
